Time;durP1;ratioP1;P1;durP2;ratioP2;P2;SDS_P1;SDS_P2;PMS_P1;PMS_P2;Temp;Humidity;BMP_temperature;BMP_pressure;BME280_temperature;BME280_humidity;BME280_pressure;Samples;Min_cycle;Max_cycle;Signal;HPM_P1;HPM_P2
2022/06/09 00:02:21;;;;;;;27.95;25.70;;;;;;;18.49;56.94;100732.19;5065733;28;20036;-77
2022/06/09 00:04:46;;;;;;;26.70;24.98;;;;;;;18.48;56.93;100736.06;5071018;28;20036;-77
2022/06/09 00:07:21;;;;;;;25.67;23.98;;;;;;;18.48;56.95;100738.78;5068569;28;20051;-77
2022/06/09 00:10:04;;;;;;;25.75;24.33;;;;;;;18.47;56.87;100743.44;5064486;28;20028;-77
2022/06/09 00:12:30;;;;;;;26.40;24.17;;;;;;;18.45;56.74;100745.66;5063419;28;20083;-77
2022/06/09 00:14:57;;;;;;;26.30;24.50;;;;;;;18.45;56.77;100751.13;5070212;28;20040;-78
2022/06/09 00:17:24;;;;;;;27.88;26.15;;;;;;;18.44;57.00;100743.22;5063299;28;20043;-78
2022/06/09 00:19:50;;;;;;;26.77;24.92;;;;;;;18.43;56.79;100752.53;5057183;28;20033;-78
2022/06/09 00:22:16;;;;;;;25.90;24.23;;;;;;;18.41;56.56;100747.34;5067809;28;20068;-78
2022/06/09 00:24:42;;;;;;;26.08;24.33;;;;;;;18.40;57.00;100756.69;5071121;28;20098;-78
2022/06/09 00:27:07;;;;;;;26.23;24.30;;;;;;;18.40;56.56;100753.94;5071477;28;20032;-78
2022/06/09 00:29:32;;;;;;;26.63;24.90;;;;;;;18.39;56.59;100755.03;5071311;28;20028;-78
2022/06/09 00:31:58;;;;;;;25.30;23.80;;;;;;;18.38;56.65;100756.97;5063482;28;20036;-78
2022/06/09 00:34:23;;;;;;;27.02;24.80;;;;;;;18.37;56.59;100760.81;5060222;28;20128;-78
2022/06/09 00:36:49;;;;;;;27.13;24.85;;;;;;;18.36;56.48;100756.44;5068591;28;20135;-78
2022/06/09 00:39:14;;;;;;;26.75;25.05;;;;;;;18.35;56.55;100764.94;5076644;28;20033;-78
2022/06/09 00:41:41;;;;;;;26.58;24.92;;;;;;;18.33;56.95;100751.56;5068429;28;20072;-77
2022/06/09 00:44:24;;;;;;;26.42;24.67;;;;;;;18.34;56.92;100755.09;5060328;28;20517;-78
2022/06/09 00:47:24;;;;;;;26.27;24.42;;;;;;;18.32;56.86;100751.84;5056886;28;20418;-78
2022/06/09 00:50:13;;;;;;;25.98;24.10;;;;;;;18.30;56.85;100768.56;5062946;28;20040;-77
2022/06/09 00:52:44;;;;;;;26.23;24.73;;;;;;;18.28;56.71;100759.84;5061776;28;20124;-77
2022/06/09 00:55:16;;;;;;;26.33;24.80;;;;;;;18.27;56.62;100757.38;5063556;28;20033;-77
2022/06/09 00:57:48;;;;;;;25.08;23.58;;;;;;;18.26;56.80;100764.78;5070119;28;20029;-77
2022/06/09 01:00:17;;;;;;;26.48;24.77;;;;;;;18.26;56.66;100763.97;5068273;28;20037;-77
2022/06/09 01:02:45;;;;;;;26.20;24.30;;;;;;;18.24;56.71;100758.78;5059734;28;20033;-76
2022/06/09 01:05:13;;;;;;;26.17;24.30;;;;;;;18.24;56.87;100755.25;5066500;28;20477;-77
2022/06/09 01:07:43;;;;;;;24.40;22.83;;;;;;;18.23;56.72;100765.38;5069740;28;20052;-77
2022/06/09 01:10:09;;;;;;;25.52;23.77;;;;;;;18.23;56.48;100764.56;5068742;28;20032;-76
2022/06/09 01:12:37;;;;;;;26.38;24.67;;;;;;;18.21;56.66;100761.31;5064103;28;20033;-76
2022/06/09 01:15:19;;;;;;;26.25;23.95;;;;;;;18.19;56.67;100767.06;5061352;28;20115;-77
2022/06/09 01:17:53;;;;;;;26.13;24.33;;;;;;;18.18;56.41;100768.16;5060460;28;20036;-77
2022/06/09 01:20:21;;;;;;;26.02;24.20;;;;;;;18.16;56.59;100773.91;5070220;28;20146;-77
2022/06/09 01:22:52;;;;;;;26.33;24.15;;;;;;;18.16;56.49;100765.72;5070118;28;20110;-78
2022/06/09 01:25:55;;;;;;;25.58;23.98;;;;;;;18.16;57.01;100770.38;5054872;28;20025;-77
2022/06/09 01:28:51;;;;;;;26.75;24.75;;;;;;;18.13;56.45;100771.78;5069769;28;20389;-77
2022/06/09 01:31:32;;;;;;;24.13;22.63;;;;;;;18.12;56.54;100777.56;5059867;28;20082;-77
2022/06/09 01:34:00;;;;;;;24.77;22.73;;;;;;;18.10;56.34;100780.56;5069881;28;20060;-77
2022/06/09 01:36:42;;;;;;;26.13;24.35;;;;;;;18.09;56.45;100780.84;5063874;28;20036;-78
2022/06/09 01:39:08;;;;;;;25.60;23.55;;;;;;;18.08;56.70;100793.72;5071489;28;20037;-77
2022/06/09 01:41:34;;;;;;;26.88;25.30;;;;;;;18.07;56.55;100797.56;5046809;28;20123;-77
2022/06/09 01:44:01;;;;;;;27.13;23.67;;;;;;;18.06;56.43;100795.91;5072818;28;20400;-78
2022/06/09 01:46:31;;;;;;;25.75;23.25;;;;;;;18.06;56.53;100795.09;5073738;28;20040;-77
2022/06/09 01:49:02;;;;;;;24.25;22.30;;;;;;;18.04;56.61;100792.69;5061986;28;20509;-77
2022/06/09 01:51:32;;;;;;;26.02;24.20;;;;;;;18.03;56.86;100792.97;5071343;28;20031;-77
2022/06/09 01:54:06;;;;;;;24.55;23.10;;;;;;;18.03;56.91;100790.22;5070699;28;20028;-78
2022/06/09 01:56:55;;;;;;;25.73;23.45;;;;;;;18.02;56.86;100788.63;5072434;28;20036;-77
2022/06/09 01:59:31;;;;;;;24.15;22.50;;;;;;;18.01;56.71;100789.69;5066937;28;20036;-78
2022/06/09 02:02:04;;;;;;;25.50;23.80;;;;;;;17.99;56.68;100786.44;5074297;28;20111;-77
2022/06/09 02:04:42;;;;;;;23.58;21.73;;;;;;;17.98;56.68;100791.09;5085463;28;20028;-78
2022/06/09 02:07:08;;;;;;;26.65;24.02;;;;;;;17.97;56.51;100796.84;5056405;28;20033;-77
2022/06/09 02:09:35;;;;;;;26.55;24.30;;;;;;;17.96;56.92;100798.78;5068126;28;20041;-78
2022/06/09 02:12:09;;;;;;;24.38;22.45;;;;;;;17.95;56.55;100797.16;5065799;28;20040;-77
2022/06/09 02:14:37;;;;;;;27.27;24.95;;;;;;;17.95;56.61;100808.09;5061903;28;20025;-77
2022/06/09 02:17:06;;;;;;;24.02;22.33;;;;;;;17.93;56.90;100802.09;5068080;28;20121;-78
2022/06/09 02:19:33;;;;;;;25.77;23.98;;;;;;;17.92;56.89;100814.94;5064133;28;20043;-78
2022/06/09 02:21:59;;;;;;;24.90;23.15;;;;;;;17.91;56.54;100807.84;5074091;28;20041;-78
2022/06/09 02:24:25;;;;;;;24.45;22.75;;;;;;;17.91;56.53;100820.69;5058650;28;20389;-77
2022/06/09 02:26:52;;;;;;;26.70;24.45;;;;;;;17.91;56.80;100824.22;5071324;28;20037;-77
2022/06/09 02:29:17;;;;;;;24.83;22.83;;;;;;;17.89;56.57;100814.69;5075676;28;20039;-77
2022/06/09 02:31:43;;;;;;;24.63;22.88;;;;;;;17.88;56.47;100818.53;5089351;28;20435;-77
2022/06/09 02:34:09;;;;;;;24.58;22.83;;;;;;;17.87;56.65;100825.94;5064455;28;20044;-77
2022/06/09 02:36:35;;;;;;;25.33;23.45;;;;;;;17.88;56.63;100824.00;5052356;28;20037;-78
2022/06/09 02:39:00;;;;;;;24.33;22.88;;;;;;;17.86;56.57;100835.22;5057720;28;20036;-78
2022/06/09 02:41:26;;;;;;;25.70;23.20;;;;;;;17.86;56.72;100826.22;5071522;28;20444;-78
2022/06/09 02:43:51;;;;;;;25.55;23.40;;;;;;;17.85;56.90;100841.00;5070383;28;20556;-77
2022/06/09 02:46:17;;;;;;;26.05;24.00;;;;;;;17.83;56.95;100837.72;5073603;28;20112;-77
2022/06/09 02:48:42;;;;;;;26.48;24.33;;;;;;;17.82;57.01;100845.13;5061736;28;20521;-77
2022/06/09 02:51:40;;;;;;;25.05;23.23;;;;;;;17.82;56.87;100847.84;5073237;28;20417;-77
2022/06/09 02:54:10;;;;;;;25.27;23.17;;;;;;;17.80;56.70;100843.78;5072926;28;20089;-78
2022/06/09 02:56:36;;;;;;;25.80;23.75;;;;;;;17.80;56.64;100851.97;5072778;28;20032;-78
2022/06/09 02:59:02;;;;;;;24.88;23.17;;;;;;;17.78;56.43;100841.28;5073529;28;20029;-78
2022/06/09 03:01:28;;;;;;;25.40;23.73;;;;;;;17.78;56.42;100857.69;5067356;28;20041;-78
2022/06/09 03:03:54;;;;;;;25.25;23.17;;;;;;;17.78;56.82;100851.41;5061198;28;20048;-78
2022/06/09 03:06:20;;;;;;;24.00;22.35;;;;;;;17.76;56.55;100851.69;5065203;28;20044;-78
2022/06/09 03:08:46;;;;;;;25.52;23.63;;;;;;;17.76;56.76;100856.34;5071552;28;20032;-78
2022/06/09 03:11:12;;;;;;;24.42;22.52;;;;;;;17.74;56.59;100862.91;5070754;28;20037;-78
2022/06/09 03:13:39;;;;;;;26.00;24.02;;;;;;;17.73;56.52;100872.19;5070890;28;20037;-78
2022/06/09 03:16:06;;;;;;;26.33;24.50;;;;;;;17.73;56.59;100874.94;5070064;28;20061;-78
2022/06/09 03:18:32;;;;;;;25.42;23.45;;;;;;;17.72;56.44;100876.03;5074070;28;20107;-77
2022/06/09 03:20:57;;;;;;;23.92;22.52;;;;;;;17.71;56.79;100873.59;5070797;28;20120;-77
2022/06/09 03:23:23;;;;;;;25.67;23.80;;;;;;;17.71;56.46;100887.25;5070587;28;20044;-77
2022/06/09 03:25:48;;;;;;;26.88;24.33;;;;;;;17.69;56.67;100884.00;5069169;28;20028;-77
2022/06/09 03:28:14;;;;;;;24.05;22.20;;;;;;;17.68;56.82;100891.38;5083364;28;20054;-76
2022/06/09 03:30:39;;;;;;;27.35;25.42;;;;;;;17.67;56.66;100888.94;5071850;28;20085;-76
2022/06/09 03:33:05;;;;;;;25.38;23.00;;;;;;;17.66;56.56;100893.56;5068603;28;20420;-76
2022/06/09 03:35:31;;;;;;;23.80;22.20;;;;;;;17.66;56.59;100901.75;5062674;28;20044;-77
2022/06/09 03:37:56;;;;;;;23.65;21.85;;;;;;;17.66;56.50;100896.31;5069385;28;20086;-77
2022/06/09 03:40:23;;;;;;;23.45;21.80;;;;;;;17.64;56.54;100895.78;5072101;28;20110;-77
2022/06/09 03:42:49;;;;;;;25.15;23.10;;;;;;;17.63;56.56;100902.34;5055673;28;20048;-76
2022/06/09 03:45:14;;;;;;;24.20;21.90;;;;;;;17.63;56.65;100909.72;5068820;28;20020;-76
2022/06/09 03:47:40;;;;;;;24.70;22.63;;;;;;;17.62;56.84;100910.84;5068785;28;20043;-77
2022/06/09 03:50:08;;;;;;;25.30;23.38;;;;;;;17.61;56.71;100917.38;5088394;28;20035;-76
2022/06/09 03:52:33;;;;;;;22.60;21.17;;;;;;;17.61;56.76;100914.66;5058249;28;20036;-76
2022/06/09 03:54:59;;;;;;;23.30;21.30;;;;;;;17.60;56.75;100919.31;5069228;28;20036;-77
2022/06/09 03:57:24;;;;;;;22.70;21.40;;;;;;;17.60;56.70;100921.22;5083016;28;20040;-77
2022/06/09 03:59:50;;;;;;;25.85;23.75;;;;;;;17.59;56.51;100925.03;5069907;28;20024;-77
2022/06/09 04:02:15;;;;;;;23.92;21.95;;;;;;;17.57;56.44;100928.06;5067970;28;20148;-77
2022/06/09 04:04:41;;;;;;;24.50;22.73;;;;;;;17.55;56.75;100930.28;5070482;28;20369;-76
2022/06/09 04:07:06;;;;;;;23.48;21.23;;;;;;;17.55;56.71;100940.38;5072319;28;20057;-79
2022/06/09 04:09:32;;;;;;;21.98;20.67;;;;;;;17.55;56.64;100933.00;5071128;28;20040;-76
2022/06/09 04:11:57;;;;;;;23.83;21.98;;;;;;;17.53;56.47;100940.66;5059417;28;20578;-77
2022/06/09 04:14:23;;;;;;;24.35;22.23;;;;;;;17.52;56.83;100945.31;5054594;28;20473;-77
2022/06/09 04:16:48;;;;;;;25.15;23.33;;;;;;;17.51;56.76;100945.59;5061542;28;20040;-76
2022/06/09 04:19:17;;;;;;;22.25;20.73;;;;;;;17.51;56.63;100940.97;5069593;28;20123;-77
2022/06/09 04:21:43;;;;;;;;;;;;;;;17.49;56.61;100954.09;5070404;28;20045;-78
2022/06/09 04:24:08;;;;;;;23.27;21.83;;;;;;;17.48;56.57;100954.34;5064771;28;20383;-78
2022/06/09 04:26:39;;;;;;;22.65;21.08;;;;;;;17.48;56.37;100960.63;5071678;28;20109;-77
2022/06/09 04:29:07;;;;;;;22.70;21.30;;;;;;;17.47;56.91;100961.75;5062158;28;20071;-77
2022/06/09 04:31:33;;;;;;;24.13;21.70;;;;;;;17.45;56.42;100963.94;5059953;28;20040;-77
2022/06/09 04:33:58;;;;;;;24.65;22.88;;;;;;;17.45;56.56;100961.19;5048085;28;20451;-78
2022/06/09 04:36:24;;;;;;;23.75;22.10;;;;;;;17.45;56.61;100971.31;5071150;28;20460;-78
2022/06/09 04:38:50;;;;;;;25.15;23.10;;;;;;;17.42;56.87;100969.97;5050634;28;20094;-78
2022/06/09 04:41:17;;;;;;;24.38;22.65;;;;;;;17.41;57.10;100973.81;5071679;28;20086;-78
2022/06/09 04:43:45;;;;;;;24.35;22.73;;;;;;;17.41;56.90;100975.69;5082706;28;20047;-79
2022/06/09 04:46:15;;;;;;;24.27;22.30;;;;;;;17.41;57.11;100978.44;5068165;28;20051;-77
2022/06/09 04:48:41;;;;;;;23.98;21.73;;;;;;;17.39;56.77;100976.00;5055372;28;20111;-78
2022/06/09 04:51:08;;;;;;;23.15;21.70;;;;;;;17.39;57.06;100986.91;5072833;28;20115;-77
2022/06/09 04:53:35;;;;;;;22.90;21.10;;;;;;;17.38;57.08;100989.91;5056011;28;20036;-77
2022/06/09 04:56:00;;;;;;;25.95;23.67;;;;;;;17.37;57.29;100996.50;5059442;28;20048;-78
2022/06/09 04:58:26;;;;;;;24.75;22.75;;;;;;;17.37;57.09;100999.22;5068317;28;20388;-77
2022/06/09 05:00:52;;;;;;;24.73;22.88;;;;;;;17.37;57.00;101010.97;5065502;28;20060;-78
2022/06/09 05:03:19;;;;;;;24.08;22.08;;;;;;;17.36;57.15;101011.22;5059056;28;20028;-78
2022/06/09 05:05:46;;;;;;;22.73;21.23;;;;;;;17.36;57.43;101012.06;5055777;28;20059;-79
2022/06/09 05:08:12;;;;;;;23.63;21.20;;;;;;;17.37;56.95;101018.34;5083207;28;20032;-78
2022/06/09 05:10:39;;;;;;;23.58;21.83;;;;;;;17.36;57.22;101017.53;5059745;28;20040;-79
2022/06/09 05:13:06;;;;;;;24.20;22.70;;;;;;;17.36;57.09;101013.97;5062745;28;20226;-78
2022/06/09 05:15:34;;;;;;;24.02;22.33;;;;;;;17.36;57.09;101023.00;5076023;28;20346;-78
2022/06/09 05:17:59;;;;;;;25.42;23.15;;;;;;;17.36;57.59;101033.06;5055871;28;20484;-78
2022/06/09 05:20:25;;;;;;;24.30;22.67;;;;;;;17.36;57.43;101042.09;5074966;28;20035;-78
2022/06/09 05:22:51;;;;;;;24.63;23.13;;;;;;;17.36;57.32;101044.00;5071994;28;20492;-78
2022/06/09 05:25:17;;;;;;;25.73;23.45;;;;;;;17.36;57.53;101049.44;5060436;28;20512;-78
2022/06/09 05:27:44;;;;;;;24.38;22.73;;;;;;;17.35;57.43;101045.91;5072304;28;20082;-78
2022/06/09 05:30:13;;;;;;;24.08;22.35;;;;;;;17.37;57.17;101054.66;5087696;28;20048;-78
2022/06/09 05:32:39;;;;;;;24.55;22.40;;;;;;;17.35;57.08;101054.09;5072326;28;20032;-78
2022/06/09 05:35:06;;;;;;;24.45;22.95;;;;;;;17.36;57.57;101063.09;5067278;28;20043;-78
2022/06/09 05:44:50;;;;;;;23.73;21.38;;;;;;;17.37;57.34;101067.50;5058919;28;20036;-77
2022/06/09 05:45:45;;;;;;;24.88;23.05;;;;;;;17.34;57.49;101079.78;5063718;28;20044;-78
2022/06/09 05:48:11;;;;;;;22.98;21.35;;;;;;;17.36;57.64;101082.22;5062101;28;20411;-77
2022/06/09 05:50:37;;;;;;;23.50;21.55;;;;;;;17.36;57.61;101088.53;5061910;28;20029;-77
2022/06/09 05:53:02;;;;;;;24.73;23.00;;;;;;;17.36;57.74;101098.59;5074813;28;20036;-77
2022/06/09 05:55:28;;;;;;;23.73;22.00;;;;;;;17.37;57.61;101105.72;5085047;28;20384;-78
2022/06/09 05:57:53;;;;;;;23.52;21.90;;;;;;;17.36;57.55;101102.19;5073706;28;20033;-78
2022/06/09 06:00:18;;;;;;;22.95;21.50;;;;;;;17.37;57.76;101100.25;5072639;28;20385;-78
2022/06/09 06:02:44;;;;;;;23.83;22.17;;;;;;;17.36;57.59;101102.19;5086439;28;20044;-77
2022/06/09 06:06:33;;;;;;;23.98;22.33;;;;;;;17.38;57.67;101115.53;5070752;28;20032;-77
2022/06/09 06:07:55;;;;;;;24.98;23.55;;;;;;;17.37;57.82;101119.38;5080259;28;20071;-78
2022/06/09 06:10:20;;;;;;;24.15;22.10;;;;;;;17.39;57.56;101119.91;5080615;28;20385;-78
2022/06/09 06:12:45;;;;;;;22.35;20.75;;;;;;;17.38;57.76;101124.53;5066077;28;20063;-77
2022/06/09 06:15:11;;;;;;;25.23;22.95;;;;;;;17.38;57.95;101127.25;5072727;28;20089;-77
2022/06/09 06:17:36;;;;;;;23.23;21.77;;;;;;;17.40;58.16;101129.72;5071357;28;20494;-77
2022/06/09 06:20:02;;;;;;;24.65;22.85;;;;;;;17.40;58.09;101130.53;5066094;28;20037;-78
2022/06/09 06:22:27;;;;;;;23.67;22.05;;;;;;;17.40;58.01;101136.00;5064964;28;20059;-78
2022/06/09 06:24:52;;;;;;;23.23;21.63;;;;;;;17.42;58.04;101143.94;5045365;28;20068;-79
2022/06/09 06:27:18;;;;;;;21.90;20.55;;;;;;;17.42;58.15;101146.66;5068620;28;20071;-78
2022/06/09 06:29:43;;;;;;;22.80;21.42;;;;;;;17.41;58.20;101143.13;5070668;28;20385;-78
2022/06/09 06:32:08;;;;;;;23.80;22.17;;;;;;;17.42;58.03;101152.13;5071781;28;20028;-78
2022/06/09 06:34:34;;;;;;;23.20;21.70;;;;;;;17.42;58.00;101155.66;5068002;28;20072;-78
2022/06/09 06:36:59;;;;;;;23.83;22.42;;;;;;;17.43;58.17;101154.56;5070077;28;20473;-78
2022/06/09 06:39:24;;;;;;;23.90;22.50;;;;;;;17.42;57.89;101158.38;5089216;28;20060;-78
2022/06/09 06:41:50;;;;;;;22.58;21.02;;;;;;;17.44;57.65;101169.03;5070059;28;20037;-78
2022/06/09 06:44:15;;;;;;;22.20;20.83;;;;;;;17.44;58.14;101175.31;5073331;28;20452;-78
2022/06/09 06:46:41;;;;;;;23.63;21.73;;;;;;;17.45;58.19;101176.94;5045735;28;20025;-78
2022/06/09 06:49:08;;;;;;;23.88;22.38;;;;;;;17.46;57.96;101175.88;5066867;28;20085;-78
2022/06/09 06:51:35;;;;;;;23.13;21.83;;;;;;;17.47;58.11;101182.13;5066520;28;20048;-78
2022/06/09 06:54:04;;;;;;;24.77;22.40;;;;;;;17.46;58.20;101185.94;5060888;28;20041;-78
2022/06/09 06:56:30;;;;;;;24.58;22.60;;;;;;;17.46;58.12;101188.69;5072773;28;20039;-78
2022/06/09 06:58:56;;;;;;;25.45;23.58;;;;;;;17.47;58.20;101184.88;5069395;28;20036;-79
2022/06/09 07:01:21;;;;;;;22.90;21.50;;;;;;;17.47;57.93;101195.78;5074931;28;20045;-78
2022/06/09 07:03:46;;;;;;;23.85;22.20;;;;;;;17.48;58.24;101200.16;5069705;28;20388;-78
2022/06/09 07:06:12;;;;;;;24.70;23.02;;;;;;;17.48;58.38;101203.69;5088233;28;20039;-78
2022/06/09 07:08:37;;;;;;;23.45;21.80;;;;;;;17.49;58.28;101212.72;5071438;28;20117;-78
2022/06/09 07:11:04;;;;;;;24.58;22.88;;;;;;;17.50;58.14;101214.34;5061585;28;20132;-78
2022/06/09 07:13:30;;;;;;;23.65;22.02;;;;;;;17.51;58.20;101207.78;5079684;28;20020;-71
2022/06/09 07:15:55;;;;;;;24.50;23.10;;;;;;;17.52;58.45;101212.16;5060338;28;20047;-76
2022/06/09 07:18:21;;;;;;;22.80;21.20;;;;;;;17.53;58.41;101221.97;5064622;28;20040;-77
2022/06/09 07:20:46;;;;;;;22.83;21.42;;;;;;;17.52;58.81;101215.72;5061711;28;20036;-77
2022/06/09 07:23:12;;;;;;;24.08;22.60;;;;;;;17.54;58.49;101207.25;5063700;28;20080;-77
2022/06/09 07:25:37;;;;;;;23.25;21.55;;;;;;;17.55;58.23;101217.06;5076083;28;20052;-77
2022/06/09 07:28:03;;;;;;;24.33;22.85;;;;;;;17.55;58.27;101217.06;5067308;28;20086;-77
2022/06/09 07:30:29;;;;;;;22.48;21.30;;;;;;;17.58;58.36;101221.16;5067326;28;20115;-77
2022/06/09 07:32:54;;;;;;;24.27;22.55;;;;;;;17.58;58.42;101223.88;5072202;28;20067;-76
2022/06/09 07:35:23;;;;;;;23.00;21.60;;;;;;;17.59;58.24;101225.50;5066237;28;20020;-77
2022/06/09 07:37:49;;;;;;;22.73;21.42;;;;;;;17.60;58.18;101229.91;5069794;28;20105;-77
2022/06/09 07:40:15;;;;;;;24.40;23.00;;;;;;;17.60;58.10;101225.25;5061239;28;20119;-77
2022/06/09 07:42:40;;;;;;;23.83;22.58;;;;;;;17.63;58.50;101237.53;5071547;28;20032;-77
2022/06/09 07:45:09;;;;;;;24.30;22.80;;;;;;;17.63;58.10;101238.34;5054246;28;20048;-77
2022/06/09 07:47:35;;;;;;;23.25;21.95;;;;;;;17.65;58.44;101233.41;5069763;28;20067;-77
2022/06/09 07:50:01;;;;;;;23.15;21.88;;;;;;;17.66;58.26;101239.69;5053911;28;20028;-77
2022/06/09 07:52:26;;;;;;;22.48;21.23;;;;;;;17.66;58.63;101240.50;5087316;28;20035;-77
2022/06/09 07:54:51;;;;;;;23.92;22.15;;;;;;;17.67;58.29;101239.44;5060649;28;20033;-77
2022/06/09 07:57:17;;;;;;;23.63;22.10;;;;;;;17.69;58.03;101239.16;5054579;28;20032;-77
2022/06/09 07:59:42;;;;;;;23.83;22.63;;;;;;;17.70;58.41;101244.34;5070995;28;20460;-76
2022/06/09 08:02:08;;;;;;;25.40;23.98;;;;;;;17.72;58.36;101244.88;5061872;28;20033;-77
2022/06/09 08:04:33;;;;;;;23.15;21.45;;;;;;;17.73;58.35;101249.22;5059342;28;20384;-76
2022/06/09 08:06:59;;;;;;;23.95;22.45;;;;;;;17.74;58.30;101250.88;5070445;28;20041;-76
2022/06/09 08:09:25;;;;;;;24.50;23.00;;;;;;;17.77;58.42;101246.78;5070436;28;20102;-76
2022/06/09 08:11:51;;;;;;;24.15;22.95;;;;;;;17.79;58.51;101258.25;5081578;28;20078;-76
2022/06/09 08:14:17;;;;;;;23.75;22.45;;;;;;;17.81;58.66;101256.06;5057808;28;20037;-77
2022/06/09 08:16:43;;;;;;;23.75;22.33;;;;;;;17.82;58.26;101265.94;5088049;28;20035;-77
2022/06/09 08:19:09;;;;;;;24.02;22.65;;;;;;;17.85;58.29;101272.75;5040079;28;20408;-76
2022/06/09 08:21:35;;;;;;;24.17;22.77;;;;;;;17.86;58.31;101266.97;5070985;28;20052;-79
2022/06/09 08:24:00;;;;;;;23.75;22.40;;;;;;;17.90;58.82;101268.06;5064555;28;20484;-77
2022/06/09 08:26:26;;;;;;;23.50;22.10;;;;;;;17.91;58.87;101275.16;5059449;28;20488;-76
2022/06/09 08:28:52;;;;;;;24.33;23.02;;;;;;;17.93;58.51;101283.91;5064419;28;20040;-76
2022/06/09 08:31:17;;;;;;;25.63;23.92;;;;;;;17.96;59.00;101274.34;5071902;28;20039;-76
2022/06/09 08:33:43;;;;;;;24.08;22.58;;;;;;;17.98;59.11;101294.00;5059949;28;20542;-76
2022/06/09 08:36:08;;;;;;;25.25;23.70;;;;;;;18.00;59.11;101288.28;5059882;28;20041;-76
2022/06/09 08:38:34;;;;;;;25.23;23.65;;;;;;;18.03;59.05;101290.44;5053540;28;20036;-76
2022/06/09 08:41:13;;;;;;;25.25;23.30;;;;;;;18.03;59.27;101295.91;5068778;28;20488;-77
2022/06/09 08:43:43;;;;;;;24.05;22.85;;;;;;;18.07;58.90;101299.72;5083604;28;20035;-76
2022/06/09 08:46:30;;;;;;;26.00;24.40;;;;;;;18.11;59.08;101300.78;5068972;28;20110;-77
2022/06/09 08:49:00;;;;;;;26.10;23.75;;;;;;;18.13;59.20;101293.94;5083313;28;20415;-77
2022/06/09 08:51:40;;;;;;;25.45;24.05;;;;;;;18.17;58.98;101307.91;5064866;28;20123;-76
2022/06/09 08:54:14;;;;;;;25.10;23.70;;;;;;;18.20;59.12;101310.06;5066859;28;20021;-78
2022/06/09 08:56:40;;;;;;;24.58;23.10;;;;;;;18.24;58.76;101310.31;5066698;28;20034;-76
2022/06/09 08:59:16;;;;;;;26.35;24.65;;;;;;;18.26;58.68;101310.84;5063297;28;20045;-76
2022/06/09 09:01:48;;;;;;;26.55;24.85;;;;;;;18.30;59.07;101306.47;5064376;28;20025;-76
2022/06/09 09:04:31;;;;;;;27.30;25.60;;;;;;;18.34;59.16;101313.00;5051869;28;20037;-77
2022/06/09 09:07:15;;;;;;;25.58;24.17;;;;;;;18.36;59.00;101325.28;5066036;28;20044;-77
2022/06/09 09:09:41;;;;;;;26.42;24.83;;;;;;;18.39;58.82;101315.69;5063760;28;20392;-77
2022/06/09 09:12:38;;;;;;;26.25;24.67;;;;;;;18.41;58.63;101318.97;5056039;28;20043;-76
2022/06/09 09:15:18;;;;;;;26.83;25.35;;;;;;;18.45;58.62;101317.31;5083129;28;20029;-77
2022/06/09 09:18:11;;;;;;;25.73;24.13;;;;;;;18.50;58.85;101319.22;5069334;28;20040;-83
2022/06/09 09:20:39;;;;;;;26.33;24.67;;;;;;;18.52;58.70;101326.06;5070522;28;20472;-76
2022/06/09 09:23:11;;;;;;;23.98;22.77;;;;;;;18.56;58.48;101324.38;5064605;28;20524;-76
2022/06/09 09:26:01;;;;;;;28.10;26.38;;;;;;;18.59;58.76;101337.47;5069206;28;20381;-75
2022/06/09 09:28:47;;;;;;;26.17;24.58;;;;;;;18.64;58.43;101339.38;5066844;28;20032;-76
2022/06/09 09:31:33;;;;;;;26.58;25.08;;;;;;;18.68;58.51;101347.84;5070080;28;20507;-80
2022/06/09 09:34:02;;;;;;;25.83;24.17;;;;;;;18.72;58.41;101347.00;5056976;28;20583;-76
2022/06/09 09:36:31;;;;;;;26.38;24.77;;;;;;;18.76;58.54;101350.03;5071065;28;20040;-76
2022/06/09 09:39:11;;;;;;;27.40;25.73;;;;;;;18.78;58.68;101356.03;5059454;28;20033;-77
2022/06/09 09:41:39;;;;;;;26.23;24.52;;;;;;;18.81;58.53;101355.47;5068125;28;20043;-76
2022/06/09 09:44:25;;;;;;;28.88;26.65;;;;;;;18.86;58.40;101352.69;5060604;28;20124;-76
2022/06/09 09:46:55;;;;;;;26.38;24.98;;;;;;;18.90;58.33;101358.41;5058856;28;20116;-77
2022/06/09 09:49:29;;;;;;;28.38;26.42;;;;;;;18.94;58.55;101362.22;5063634;28;20470;-77
2022/06/09 09:51:56;;;;;;;25.08;23.67;;;;;;;18.97;58.21;101376.16;5054760;28;20719;-77
2022/06/09 09:54:26;;;;;;;26.50;24.98;;;;;;;19.00;58.31;101381.06;5062773;28;20476;-76
2022/06/09 09:57:20;;;;;;;27.65;26.15;;;;;;;19.06;58.32;101375.56;5064302;28;20040;-77
2022/06/09 09:59:49;;;;;;;27.65;26.15;;;;;;;19.08;58.17;101378.84;5065223;28;20128;-75
2022/06/09 10:08:37;;;;;;;27.63;26.02;;;;;;;19.19;57.91;101388.63;5071723;28;20186;-78
2022/06/09 10:11:53;;;;;;;29.02;27.27;;;;;;;19.23;57.50;101395.97;5057228;28;20028;-76
2022/06/09 10:13:52;;;;;;;26.85;25.35;;;;;;;19.28;57.84;101395.13;5071261;28;20090;-76
2022/06/09 10:16:21;;;;;;;26.90;25.50;;;;;;;19.32;57.59;101400.84;5071064;28;20032;-78
2022/06/09 10:18:53;;;;;;;28.33;26.52;;;;;;;19.35;57.91;101395.63;5068644;28;20040;-75
2022/06/09 10:21:19;;;;;;;28.75;26.85;;;;;;;19.38;57.72;101397.78;5064911;28;20039;-75
2022/06/09 10:23:59;;;;;;;28.75;26.77;;;;;;;19.43;57.63;101397.75;5066665;28;20045;-76
2022/06/09 10:26:30;;;;;;;28.60;26.90;;;;;;;19.48;57.47;101401.53;5072266;28;20464;-75
2022/06/09 10:29:05;;;;;;;26.25;24.98;;;;;;;19.51;57.23;101404.53;5070092;28;20518;-76
2022/06/09 10:31:46;;;;;;;29.42;27.63;;;;;;;19.55;57.76;101416.53;5072139;28;20472;-76
2022/06/09 10:34:34;;;;;;;27.30;25.85;;;;;;;19.58;57.32;101413.25;5065288;28;20029;-75
2022/06/09 10:37:27;;;;;;;28.60;27.10;;;;;;;19.64;57.08;101422.22;5065350;28;20119;-75
2022/06/09 10:40:01;;;;;;;27.92;26.15;;;;;;;19.66;57.34;101425.50;5072737;28;20028;-77
2022/06/09 10:42:34;;;;;;;28.52;26.83;;;;;;;19.70;57.47;101420.28;5060250;28;20052;-76
2022/06/09 10:45:15;;;;;;;28.45;26.75;;;;;;;19.74;57.29;101427.66;5068460;28;20036;-76
2022/06/09 10:56:49;;;;;;;29.30;27.58;;;;;;;19.92;56.75;101437.09;5067645;28;20043;-75
2022/06/09 10:59:23;;;;;;;28.58;27.05;;;;;;;19.95;56.60;101431.03;5065293;28;20396;-75
2022/06/09 11:01:49;;;;;;;28.85;27.08;;;;;;;20.00;56.55;101436.44;5072166;28;20138;-75
2022/06/09 11:04:17;;;;;;;29.00;27.40;;;;;;;20.03;56.40;101432.31;5066046;28;20503;-75
2022/06/09 11:07:12;;;;;;;27.27;25.75;;;;;;;20.07;56.42;101436.13;5058194;28;20045;-75
2022/06/09 11:09:46;;;;;;;30.73;28.30;;;;;;;20.09;56.36;101433.91;5053303;28;20535;-75
2022/06/09 11:12:34;;;;;;;29.77;28.27;;;;;;;20.15;56.22;101440.16;5061935;28;20029;-75
2022/06/09 11:15:37;;;;;;;29.92;27.80;;;;;;;20.20;56.38;101451.06;5063638;28;20040;-75
2022/06/09 11:18:29;;;;;;;30.83;28.80;;;;;;;20.22;56.06;101446.94;5066637;28;20029;-74
2022/06/09 11:21:17;;;;;;;29.73;28.13;;;;;;;20.27;56.37;101440.59;5059537;28;20047;-75
2022/06/09 11:23:59;;;;;;;28.70;26.95;;;;;;;20.29;56.43;101450.16;5062593;28;20126;-76
2022/06/09 11:26:48;;;;;;;30.65;28.83;;;;;;;20.33;55.87;101444.88;5069820;28;20043;-79
2022/06/09 11:29:38;;;;;;;29.42;27.83;;;;;;;20.36;55.73;101455.31;5060691;28;20043;-77
2022/06/09 11:32:23;;;;;;;30.98;29.30;;;;;;;20.40;56.01;101452.78;5060820;28;20094;-76
2022/06/09 11:35:14;;;;;;;29.10;27.50;;;;;;;20.43;55.49;101457.69;5064463;28;20111;-76
2022/06/09 11:37:51;;;;;;;30.92;29.15;;;;;;;20.45;55.15;101461.78;5070482;28;20137;-76
2022/06/09 11:40:38;;;;;;;28.73;27.23;;;;;;;20.47;55.66;101462.31;5070645;28;20032;-77
2022/06/09 11:43:10;;;;;;;29.13;27.53;;;;;;;20.50;55.74;101467.19;5060508;28;20044;-76
2022/06/09 11:45:43;;;;;;;33.40;31.65;;;;;;;20.53;55.52;101472.09;5068770;28;20286;-76